Time;durP1;ratioP1;P1;durP2;ratioP2;P2;SDS_P1;SDS_P2;PMS_P1;PMS_P2;Temp;Humidity;BMP_temperature;BMP_pressure;BME280_temperature;BME280_humidity;BME280_pressure;Samples;Min_cycle;Max_cycle;Signal;HPM_P1;HPM_P2
2022/09/05 00:02:08;;;;;;;4.17;3.57;;;19.10;99.90;;;;;;5073437;28;20605;-58
2022/09/05 00:04:39;;;;;;;7.43;4.57;;;19.10;99.90;;;;;;5073234;28;20220;-58
2022/09/05 00:07:15;;;;;;;6.43;4.30;;;19.10;99.90;;;;;;5073309;28;20205;-58
2022/09/05 00:10:04;;;;;;;5.93;4.60;;;19.10;99.90;;;;;;5073251;28;20205;-58
2022/09/05 00:12:34;;;;;;;6.00;4.07;;;19.10;99.90;;;;;;5073118;28;20556;-58
2022/09/05 00:15:18;;;;;;;7.20;4.67;;;19.00;99.90;;;;;;5072903;28;20631;-57
2022/09/05 00:17:55;;;;;;;5.57;4.30;;;19.10;99.90;;;;;;5072820;28;20247;-58
2022/09/05 00:20:28;;;;;;;5.20;4.20;;;19.10;99.90;;;;;;5073074;28;20209;-58
2022/09/05 00:23:01;;;;;;;4.53;4.13;;;19.00;99.90;;;;;;5072678;28;20250;-57
2022/09/05 00:25:59;;;;;;;7.23;4.23;;;19.00;99.90;;;;;;5072789;28;20229;-58
2022/09/05 00:28:37;;;;;;;4.27;3.70;;;19.00;99.90;;;;;;5072929;28;20200;-58
2022/09/05 00:31:19;;;;;;;4.60;3.80;;;19.00;1.00;;;;;;5072910;28;20204;-58
2022/09/05 00:34:01;;;;;;;5.47;4.30;;;18.90;1.00;;;;;;5072576;28;20354;-58
2022/09/05 00:36:39;;;;;;;3.80;3.40;;;18.90;1.00;;;;;;5072538;28;20679;-59
2022/09/05 00:39:11;;;;;;;4.67;4.07;;;18.90;1.00;;;;;;5072837;28;20229;-58
2022/09/05 00:41:40;;;;;;;4.67;3.93;;;18.80;1.00;;;;;;5072638;28;20259;-59
2022/09/05 00:44:12;;;;;;;4.40;4.00;;;18.80;1.00;;;;;;5072379;28;20585;-58
2022/09/05 00:46:48;;;;;;;4.40;4.00;;;18.80;1.00;;;;;;5072445;28;20232;-56
2022/09/05 00:49:21;;;;;;;4.23;3.83;;;18.80;1.00;;;;;;5072638;28;20234;-58
2022/09/05 00:51:55;;;;;;;4.27;3.80;;;18.80;1.00;;;;;;5072549;28;20239;-58
2022/09/05 00:54:43;;;;;;;5.83;3.90;;;18.70;1.00;;;;;;5072101;28;20241;-59
2022/09/05 00:57:37;;;;;;;4.30;3.77;;;18.70;1.00;;;;;;5071780;28;20200;-58
2022/09/05 01:00:15;;;;;;;4.80;3.73;;;18.70;1.00;;;;;;5072788;28;20235;-57
2022/09/05 01:03:08;;;;;;;3.70;3.40;;;18.70;1.00;;;;;;5072069;28;20215;-57
2022/09/05 01:06:10;;;;;;;4.93;3.30;;;18.60;1.00;;;;;;5072318;28;20262;-57
2022/09/05 01:09:01;;;;;;;4.90;3.70;;;18.60;1.00;;;;;;5063892;28;20201;-57
2022/09/05 01:11:42;;;;;;;4.80;3.30;;;18.60;1.00;;;;;;5068286;28;20209;-56
2022/09/05 01:14:25;;;;;;;4.00;3.60;;;18.60;1.00;;;;;;5072098;28;20364;-52
2022/09/05 01:17:18;;;;;;;4.33;3.93;;;18.50;11.30;;;;;;5071966;28;20207;-54
2022/09/05 01:19:58;;;;;;;4.50;3.50;;;18.50;77.00;;;;;;5072338;28;20284;-55
2022/09/05 01:22:49;;;;;;;4.07;3.60;;;18.50;99.90;;;;;;5072835;28;20209;-56
2022/09/05 01:25:30;;;;;;;3.90;3.47;;;18.40;99.90;;;;;;5072470;28;20237;-58
2022/09/05 01:28:03;;;;;;;4.83;3.40;;;18.40;99.90;;;;;;5071682;28;20205;-58
2022/09/05 01:30:37;;;;;;;4.73;3.13;;;18.40;99.90;;;;;;5072127;28;20205;-58
2022/09/05 01:33:14;;;;;;;3.80;3.30;;;18.40;99.90;;;;;;5071927;28;20204;-58
2022/09/05 01:36:04;;;;;;;4.00;3.20;;;18.40;99.90;;;;;;5072001;28;20239;-58
2022/09/05 01:38:38;;;;;;;5.17;3.37;;;18.40;99.90;;;;;;5071917;28;20278;-58
2022/09/05 01:41:18;;;;;;;3.73;3.33;;;18.40;99.90;;;;;;5072152;28;20211;-54
2022/09/05 01:44:10;;;;;;;4.07;3.67;;;18.40;99.90;;;;;;5076659;28;20208;-55
2022/09/05 01:46:44;;;;;;;4.23;3.07;;;18.40;99.90;;;;;;5078445;28;20296;-57
2022/09/05 01:49:23;;;;;;;3.83;3.30;;;18.30;99.90;;;;;;5078381;28;20204;-58
2022/09/05 01:52:15;;;;;;;3.50;3.20;;;18.40;99.90;;;;;;5078368;28;20289;-58
2022/09/05 01:54:57;;;;;;;3.57;3.17;;;18.40;99.90;;;;;;5078037;28;20228;-58
2022/09/05 01:57:35;;;;;;;3.23;2.70;;;18.40;99.90;;;;;;5078007;28;20201;-58
2022/09/05 02:00:12;;;;;;;4.47;2.87;;;18.40;99.90;;;;;;5077933;28;20671;-58
2022/09/05 02:02:47;;;;;;;3.40;3.10;;;18.40;99.90;;;;;;5078345;28;20212;-58
2022/09/05 02:05:22;;;;;;;3.00;2.70;;;18.40;99.90;;;;;;5077964;28;20224;-58
2022/09/05 02:08:18;;;;;;;5.33;3.10;;;18.30;99.90;;;;;;5078199;28;20208;-57
2022/09/05 02:11:01;;;;;;;3.27;2.97;;;18.30;99.90;;;;;;5078264;28;20671;-57
2022/09/05 02:13:42;;;;;;;3.67;2.73;;;18.40;99.90;;;;;;5078008;28;20243;-58
2022/09/05 02:16:18;;;;;;;3.00;2.70;;;18.40;99.90;;;;;;5078103;28;20576;-58
2022/09/05 02:18:54;;;;;;;4.83;3.00;;;18.40;99.90;;;;;;5078104;28;20220;-58
2022/09/05 02:21:36;;;;;;;2.80;2.60;;;18.40;99.90;;;;;;5077990;28;20670;-58
2022/09/05 02:24:12;;;;;;;3.13;2.53;;;18.50;99.90;;;;;;5078064;28;20270;-58
2022/09/05 02:26:47;;;;;;;6.00;2.90;;;18.40;99.90;;;;;;5078208;28;20683;-58
2022/09/05 02:29:20;;;;;;;4.67;2.70;;;18.50;99.90;;;;;;5077999;28;20258;-59
2022/09/05 02:31:52;;;;;;;3.40;2.90;;;18.60;99.90;;;;;;5078108;28;20229;-58
2022/09/05 02:34:26;;;;;;;2.73;2.40;;;18.60;99.90;;;;;;5077638;28;20232;-59
2022/09/05 02:37:04;;;;;;;4.00;2.83;;;18.60;99.90;;;;;;5078039;28;20346;-58
2022/09/05 02:39:39;;;;;;;4.83;2.80;;;18.70;99.90;;;;;;5077934;28;20224;-59
2022/09/05 02:42:16;;;;;;;4.70;2.57;;;18.80;99.90;;;;;;5077902;28;20234;-58
2022/09/05 02:44:58;;;;;;;2.97;2.67;;;18.80;78.90;;;;;;5077680;28;20289;-57
2022/09/05 02:47:31;;;;;;;3.03;2.60;;;18.80;40.60;;;;;;5078031;28;20205;-58
2022/09/05 02:50:07;;;;;;;2.90;2.20;;;18.90;3.50;;;;;;5077654;28;20212;-58
2022/09/05 02:52:38;;;;;;;2.80;2.50;;;19.00;1.00;;;;;;5078050;28;20291;-58
2022/09/05 02:55:22;;;;;;;2.73;2.23;;;19.00;1.00;;;;;;5073866;28;20232;-58
2022/09/05 02:57:53;;;;;;;4.50;2.60;;;19.00;1.00;;;;;;5074434;28;20212;-59
2022/09/05 03:00:23;;;;;;;3.73;2.30;;;19.00;1.00;;;;;;5074541;28;20636;-59
2022/09/05 03:03:19;;;;;;;2.53;2.30;;;19.10;1.00;;;;;;5074584;28;20209;-59
2022/09/05 03:05:55;;;;;;;3.87;2.30;;;19.10;1.00;;;;;;5074474;28;20279;-58
2022/09/05 03:08:34;;;;;;;2.77;2.40;;;19.10;1.00;;;;;;5074486;28;20262;-57
2022/09/05 03:11:41;;;;;;;3.67;2.43;;;19.10;1.00;;;;;;5074479;28;20201;-59
2022/09/05 03:14:43;;;;;;;4.37;2.07;;;19.10;1.00;;;;;;5074140;28;20274;-59
2022/09/05 03:17:53;;;;;;;3.07;2.47;;;19.10;99.90;;;;;;5074072;28;20261;-54
2022/09/05 03:20:55;;;;;;;3.07;2.60;;;19.10;99.90;;;;;;5065583;28;20736;-56
2022/09/05 03:23:47;;;;;;;2.70;1.80;;;19.10;99.90;;;;;;5074200;28;20216;-54
2022/09/05 03:26:42;;;;;;;4.20;2.33;;;19.10;99.90;;;;;;5073911;28;20500;-55
2022/09/05 03:29:34;;;;;;;2.80;2.40;;;19.20;99.90;;;;;;5074103;28;20262;-54
2022/09/05 03:32:30;;;;;;;5.33;2.33;;;19.20;99.90;;;;;;5074070;28;20209;-52
2022/09/05 03:35:31;;;;;;;3.50;2.13;;;19.20;99.90;;;;;;5073610;28;20286;-55
2022/09/05 03:38:33;;;;;;;3.40;2.30;;;19.10;99.90;;;;;;5073514;28;20200;-57
2022/09/05 03:41:14;;;;;;;2.97;2.40;;;19.10;99.90;;;;;;5023422;28;20262;-54
2022/09/05 03:43:53;;;;;;;5.50;2.57;;;19.10;99.90;;;;;;5073629;28;20304;-56
2022/09/05 03:46:45;;;;;;;4.03;2.40;;;19.10;99.90;;;;;;5073395;28;20209;-57
2022/09/05 03:49:31;;;;;;;6.87;2.60;;;19.10;99.90;;;;;;5073725;28;20258;-58
2022/09/05 03:52:08;;;;;;;3.80;2.50;;;19.10;99.90;;;;;;5073556;28;20201;-58
2022/09/05 03:55:00;;;;;;;2.80;2.30;;;19.00;99.90;;;;;;5073319;28;20654;-58
2022/09/05 03:57:55;;;;;;;4.57;2.40;;;18.90;99.90;;;;;;5073485;28;20209;-58
2022/09/05 04:00:24;;;;;;;3.03;2.20;;;18.90;99.90;;;;;;5073401;28;20259;-58
2022/09/05 04:03:10;;;;;;;5.40;2.80;;;18.80;99.90;;;;;;5073771;28;20209;-58
2022/09/05 04:05:41;;;;;;;3.97;2.40;;;18.80;99.90;;;;;;5073205;28;20229;-58
2022/09/05 04:08:13;;;;;;;4.40;2.40;;;18.70;99.90;;;;;;5073141;28;20223;-57
2022/09/05 04:10:50;;;;;;;4.40;2.30;;;18.70;99.90;;;;;;5073528;28;20197;-55
2022/09/05 04:13:23;;;;;;;5.30;2.47;;;18.70;1.00;;;;;;5073345;28;20230;-57
2022/09/05 04:16:00;;;;;;;2.40;2.20;;;18.70;1.00;;;;;;5072850;28;20589;-56
2022/09/05 04:18:33;;;;;;;2.80;2.33;;;18.70;1.00;;;;;;5072781;28;20588;-55
2022/09/05 04:21:04;;;;;;;2.50;2.23;;;18.60;1.00;;;;;;5072991;28;20603;-57
2022/09/05 04:23:41;;;;;;;5.57;2.40;;;18.60;1.00;;;;;;5072912;28;20209;-58
2022/09/05 04:26:22;;;;;;;2.33;2.13;;;18.50;1.00;;;;;;5072633;28;20640;-53
2022/09/05 04:29:02;;;;;;;5.60;2.40;;;18.50;1.00;;;;;;5072768;28;20197;-56
2022/09/05 04:31:43;;;;;;;3.80;2.53;;;18.40;1.00;;;;;;5072841;28;20212;-56
2022/09/05 04:34:25;;;;;;;2.80;2.43;;;18.40;1.00;;;;;;5072845;28;20228;-56
2022/09/05 04:37:01;;;;;;;3.50;2.30;;;18.30;1.00;;;;;;5072381;28;20201;-56
2022/09/05 04:39:28;;;;;;;2.60;2.40;;;18.30;1.00;;;;;;5072129;28;20225;-57
2022/09/05 04:42:05;;;;;;;3.27;2.63;;;18.30;1.00;;;;;;5072722;28;20205;-54
2022/09/05 04:44:37;;;;;;;3.50;2.20;;;18.20;1.00;;;;;;5072775;28;20221;-57
2022/09/05 04:47:09;;;;;;;2.93;2.47;;;18.20;1.00;;;;;;5069827;28;20205;-56
2022/09/05 04:49:39;;;;;;;4.60;2.43;;;18.20;1.00;;;;;;5072325;28;20201;-56
2022/09/05 04:52:48;;;;;;;4.13;2.60;;;18.20;1.00;;;;;;5072026;28;20682;-55
2022/09/05 04:55:17;;;;;;;2.67;2.37;;;18.20;1.00;;;;;;5072968;28;20236;-57
2022/09/05 04:57:52;;;;;;;2.83;2.50;;;18.20;1.00;;;;;;5073382;28;20263;-59
2022/09/05 05:00:25;;;;;;;3.57;2.30;;;18.20;1.00;;;;;;5071951;28;20227;-59
2022/09/05 05:02:55;;;;;;;3.43;2.50;;;18.30;1.00;;;;;;5072419;28;20209;-60
2022/09/05 05:05:24;;;;;;;4.77;2.97;;;18.30;1.00;;;;;;5072194;28;20628;-59
2022/09/05 05:07:56;;;;;;;3.40;2.50;;;18.30;1.00;;;;;;5071527;28;20683;-59
2022/09/05 05:10:30;;;;;;;2.40;2.20;;;18.30;1.00;;;;;;5071967;28;20681;-58
2022/09/05 05:13:04;;;;;;;4.17;2.60;;;18.30;1.00;;;;;;5071530;28;20208;-59
2022/09/05 05:15:34;;;;;;;2.70;2.20;;;18.30;1.00;;;;;;5071753;28;20603;-61
2022/09/05 05:18:11;;;;;;;2.60;2.30;;;18.30;1.00;;;;;;5070792;28;20262;-61
2022/09/05 05:20:43;;;;;;;3.50;2.40;;;18.40;1.00;;;;;;5071979;28;20643;-65
2022/09/05 05:23:14;;;;;;;4.10;2.50;;;18.40;1.00;;;;;;5071467;28;20255;-67
2022/09/05 05:25:49;;;;;;;3.00;2.70;;;18.40;1.00;;;;;;5072100;28;20229;-62
2022/09/05 05:28:26;;;;;;;4.33;2.97;;;18.40;1.00;;;;;;5071397;28;20258;-61
2022/09/05 05:30:54;;;;;;;2.97;2.40;;;18.40;1.00;;;;;;5071708;28;20208;-62
2022/09/05 05:33:27;;;;;;;3.93;2.40;;;18.40;1.00;;;;;;5071339;28;20679;-65
2022/09/05 05:35:56;;;;;;;2.90;2.50;;;18.40;1.00;;;;;;5071383;28;20353;-60
2022/09/05 05:38:35;;;;;;;2.80;2.50;;;18.40;1.00;;;;;;5071548;28;20212;-61
2022/09/05 05:41:12;;;;;;;6.07;2.30;;;18.50;1.00;;;;;;5071461;28;20728;-63
2022/09/05 05:43:43;;;;;;;3.30;2.60;;;18.50;1.00;;;;;;5068384;28;20932;-61
2022/09/05 05:46:15;;;;;;;4.83;2.80;;;18.60;1.00;;;;;;5065809;28;20201;-61
2022/09/05 05:48:46;;;;;;;4.70;2.10;;;18.60;1.00;;;;;;5070921;28;20205;-60
2022/09/05 05:51:26;;;;;;;5.40;2.50;;;18.60;1.00;;;;;;5071255;28;20242;-60
2022/09/05 05:53:58;;;;;;;4.50;2.70;;;18.70;1.00;;;;;;5070877;28;20236;-58
2022/09/05 05:56:47;;;;;;;4.33;2.73;;;18.70;1.00;;;;;;5069195;28;20209;-59
2022/09/05 05:59:47;;;;;;;3.60;2.37;;;18.80;1.00;;;;;;5071015;28;20319;-61
2022/09/05 06:02:49;;;;;;;3.80;2.57;;;18.90;1.00;;;;;;5051493;28;20206;-60
2022/09/05 06:05:58;;;;;;;4.00;2.77;;;19.00;1.00;;;;;;5050784;28;20299;-61
2022/09/05 06:08:54;;;;;;;4.60;2.83;;;19.00;1.00;;;;;;4988351;28;20207;-59
2022/09/05 06:11:51;;;;;;;3.73;2.40;;;19.00;1.00;;;;;;5036385;28;20271;-60
2022/09/05 06:15:02;;;;;;;4.57;2.73;;;19.10;1.00;;;;;;5037239;28;20275;-60
2022/09/05 06:18:07;;;;;;;4.90;2.30;;;19.10;1.00;;;;;;5070035;28;20246;-60
2022/09/05 06:21:03;;;;;;;2.70;2.13;;;19.30;99.90;;;;;;4995695;28;20235;-62
2022/09/05 06:24:02;;;;;;;3.90;2.27;;;19.30;99.90;;;;;;5054253;28;20201;-60
2022/09/05 06:26:53;;;;;;;4.50;2.83;;;19.40;99.90;;;;;;5069985;28;20209;-61
2022/09/05 06:29:34;;;;;;;3.67;2.17;;;19.50;99.90;;;;;;5072258;28;20201;-61
2022/09/05 06:32:16;;;;;;;4.30;2.23;;;19.50;99.90;;;;;;5074080;28;20205;-60
2022/09/05 06:35:21;;;;;;;5.17;2.57;;;19.60;99.90;;;;;;5073949;28;20764;-59
2022/09/05 06:38:00;;;;;;;4.70;2.73;;;19.70;99.90;;;;;;5048405;28;20254;-59
2022/09/05 06:40:33;;;;;;;2.73;2.20;;;19.70;99.90;;;;;;5073813;28;20714;-63
2022/09/05 06:43:10;;;;;;;5.10;2.50;;;19.80;99.90;;;;;;5074075;28;20690;-63
2022/09/05 06:45:54;;;;;;;3.10;2.50;;;19.90;99.90;;;;;;5073719;28;20278;-63
2022/09/05 06:48:27;;;;;;;3.07;2.37;;;19.90;99.90;;;;;;5074209;28;20208;-64
2022/09/05 06:51:10;;;;;;;3.53;2.30;;;20.00;99.90;;;;;;5073649;28;20249;-64
2022/09/05 06:54:00;;;;;;;2.47;2.00;;;20.10;99.90;;;;;;5073824;28;20205;-64
2022/09/05 06:56:49;;;;;;;2.60;2.20;;;20.20;99.90;;;;;;5073413;28;20205;-64
2022/09/05 06:59:52;;;;;;;5.93;2.20;;;20.20;99.90;;;;;;5073328;28;20236;-64
2022/09/05 07:02:22;;;;;;;3.50;2.27;;;20.30;99.90;;;;;;5074344;28;20205;-63
2022/09/05 07:05:03;;;;;;;7.20;2.20;;;20.40;99.90;;;;;;5073898;28;20221;-61
2022/09/05 07:07:37;;;;;;;3.17;2.27;;;20.40;99.90;;;;;;5073174;28;20209;-57
2022/09/05 07:10:09;;;;;;;3.80;2.30;;;20.50;99.90;;;;;;5073905;28;20204;-63
2022/09/05 07:12:44;;;;;;;4.47;2.10;;;20.70;99.90;;;;;;5073628;28;20288;-64
2022/09/05 07:15:29;;;;;;;2.63;2.20;;;20.70;99.90;;;;;;5073309;28;20594;-63
2022/09/05 07:18:06;;;;;;;3.60;2.13;;;20.90;99.90;;;;;;5073107;28;20796;-62
2022/09/05 07:20:40;;;;;;;2.67;2.27;;;21.10;99.90;;;;;;5073649;28;20228;-62
2022/09/05 07:23:19;;;;;;;4.73;2.40;;;21.20;99.90;;;;;;5073176;28;20250;-58
2022/09/05 07:25:49;;;;;;;4.30;2.07;;;21.40;99.90;;;;;;5073190;28;20228;-57
2022/09/05 07:28:18;;;;;;;5.20;2.20;;;21.50;99.90;;;;;;5072841;28;20201;-58
2022/09/05 07:30:49;;;;;;;4.07;2.37;;;21.60;99.90;;;;;;5073478;28;20201;-60
2022/09/05 07:33:19;;;;;;;5.60;2.10;;;21.70;99.90;;;;;;5073195;28;20255;-58
2022/09/05 07:35:50;;;;;;;3.43;1.90;;;21.80;99.90;;;;;;5073082;28;20282;-58
2022/09/05 07:38:20;;;;;;;5.10;2.00;;;22.00;99.90;;;;;;5072913;28;20239;-58
2022/09/05 07:40:52;;;;;;;6.47;2.40;;;22.20;99.90;;;;;;5072282;28;20275;-59
2022/09/05 07:43:23;;;;;;;4.03;2.20;;;22.30;99.90;;;;;;5072585;28;20703;-58
2022/09/05 07:46:09;;;;;;;4.77;2.07;;;22.50;99.90;;;;;;5071918;28;20229;-62
2022/09/05 07:48:39;;;;;;;11.97;2.33;;;22.60;99.90;;;;;;5063818;28;20209;-60
2022/09/05 07:51:12;;;;;;;5.40;2.50;;;22.80;99.90;;;;;;5073028;28;20255;-57
2022/09/05 07:53:43;;;;;;;6.17;2.27;;;22.90;99.90;;;;;;5072917;28;20238;-58
2022/09/05 07:56:10;;;;;;;5.60;2.40;;;23.00;99.90;;;;;;5072204;28;20212;-63
2022/09/05 07:58:42;;;;;;;3.50;2.27;;;23.10;99.90;;;;;;5072590;28;20675;-63
2022/09/05 08:01:12;;;;;;;4.50;2.10;;;23.30;99.90;;;;;;5072221;28;20715;-63
2022/09/05 08:03:40;;;;;;;5.43;2.30;;;23.40;99.90;;;;;;5072463;28;20205;-65
2022/09/05 08:06:11;;;;;;;5.27;1.93;;;23.60;99.90;;;;;;5071810;28;20667;-67
2022/09/05 08:08:50;;;;;;;4.07;1.97;;;23.70;99.90;;;;;;5072815;28;20869;-67
2022/09/05 08:11:19;;;;;;;5.77;2.30;;;23.80;99.90;;;;;;5071954;28;20205;-63
2022/09/05 08:13:53;;;;;;;4.50;2.17;;;23.90;99.90;;;;;;5072425;28;20205;-61
2022/09/05 08:16:23;;;;;;;5.97;2.00;;;24.00;99.90;;;;;;5071706;28;20220;-61
2022/09/05 08:18:54;;;;;;;5.10;2.03;;;24.20;99.90;;;;;;5072651;28;20209;-62
2022/09/05 08:21:30;;;;;;;4.93;2.10;;;24.20;99.90;;;;;;5072112;28;20294;-62
2022/09/05 08:24:06;;;;;;;3.50;1.90;;;24.40;99.90;;;;;;5072529;28;20304;-62
2022/09/05 08:26:38;;;;;;;4.50;2.10;;;24.50;99.90;;;;;;5071470;28;20209;-62
2022/09/05 08:29:12;;;;;;;5.43;2.13;;;24.60;99.90;;;;;;5074231;28;20209;-62
2022/09/05 08:31:43;;;;;;;7.77;1.77;;;24.70;99.90;;;;;;5081410;28;20201;-62
2022/09/05 08:34:14;;;;;;;3.43;1.77;;;24.80;99.90;;;;;;5082006;28;20229;-63
2022/09/05 08:36:46;;;;;;;3.17;1.77;;;25.00;99.90;;;;;;5072289;28;20225;-63
2022/09/05 08:39:18;;;;;;;5.30;2.07;;;25.10;99.90;;;;;;5071621;28;20212;-63
2022/09/05 08:42:02;;;;;;;4.80;2.00;;;25.20;99.90;;;;;;5072270;28;20745;-64
2022/09/05 08:44:35;;;;;;;4.23;1.90;;;25.20;99.90;;;;;;5071750;28;20286;-63
2022/09/05 08:47:15;;;;;;;3.87;1.77;;;25.40;99.90;;;;;;5069918;28;20205;-64
2022/09/05 08:49:57;;;;;;;2.40;1.70;;;25.50;99.90;;;;;;5063411;28;20209;-63
2022/09/05 08:52:37;;;;;;;3.47;1.80;;;25.50;99.90;;;;;;5071078;28;20215;-63
2022/09/05 08:55:13;;;;;;;4.00;2.30;;;25.50;99.90;;;;;;5071144;28;20286;-67
2022/09/05 08:57:58;;;;;;;3.67;2.03;;;25.50;99.90;;;;;;5071231;28;20250;-68
2022/09/05 09:00:28;;;;;;;2.47;1.53;;;25.60;99.90;;;;;;5071423;28;20232;-67
2022/09/05 09:03:05;;;;;;;3.23;1.80;;;25.60;99.90;;;;;;5071598;28;20637;-67
2022/09/05 09:06:11;;;;;;;2.07;1.70;;;25.70;99.90;;;;;;5071597;28;20232;-65
2022/09/05 09:08:52;;;;;;;2.60;1.57;;;25.80;99.90;;;;;;5071611;28;20711;-62
2022/09/05 09:11:29;;;;;;;3.73;1.57;;;26.00;99.90;;;;;;5071321;28;20204;-63
2022/09/05 09:14:25;;;;;;;3.70;1.73;;;26.10;99.90;;;;;;5071509;28;20220;-64
2022/09/05 09:17:02;;;;;;;1.63;1.30;;;26.20;99.90;;;;;;5070844;28;20205;-65
2022/09/05 09:19:44;;;;;;;2.53;1.53;;;26.40;99.90;;;;;;5071889;28;20633;-66
2022/09/05 09:22:18;;;;;;;4.97;1.90;;;26.50;99.90;;;;;;5071111;28;20734;-65
2022/09/05 09:24:56;;;;;;;5.13;2.23;;;26.60;99.90;;;;;;5071290;28;20228;-64
2022/09/05 09:27:32;;;;;;;1.93;1.43;;;26.70;99.90;;;;;;5071005;28;20217;-65
2022/09/05 09:30:04;;;;;;;2.60;1.60;;;26.70;99.90;;;;;;5071663;28;20197;-65
2022/09/05 09:32:41;;;;;;;5.47;1.40;;;26.70;99.90;;;;;;5071102;28;20259;-65
2022/09/05 09:35:17;;;;;;;2.80;1.60;;;26.80;99.90;;;;;;5071524;28;20228;-64
2022/09/05 09:38:03;;;;;;;5.70;1.40;;;26.90;99.90;;;;;;5070712;28;20258;-68
2022/09/05 09:41:03;;;;;;;1.53;1.20;;;26.90;99.90;;;;;;5071527;28;20221;-66
2022/09/05 09:43:47;;;;;;;3.67;1.33;;;27.10;99.90;;;;;;5066945;28;20274;-62
2022/09/05 09:46:21;;;;;;;3.47;1.57;;;27.20;99.90;;;;;;5070972;28;20205;-62
2022/09/05 09:49:10;;;;;;;1.40;1.27;;;27.20;99.90;;;;;;5064615;28;20270;-62
2022/09/05 09:52:12;;;;;;;3.23;1.50;;;27.20;99.90;;;;;;5070410;28;20258;-65
2022/09/05 09:55:37;;;;;;;3.93;1.40;;;27.30;99.90;;;;;;5070916;28;20243;-62
2022/09/05 09:58:35;;;;;;;16.40;9.33;;;27.10;99.90;;;;;;5070872;28;20216;-67
2022/09/05 10:01:15;;;;;;;3.80;2.77;;;27.20;99.90;;;;;;5070940;28;20251;-63
2022/09/05 10:04:10;;;;;;;2.83;1.60;;;27.30;99.90;;;;;;5071322;28;20585;-63
2022/09/05 10:06:59;;;;;;;3.00;1.80;;;27.40;99.90;;;;;;5074556;28;20208;-64
2022/09/05 10:09:38;;;;;;;4.03;1.70;;;27.40;99.90;;;;;;5074911;28;20739;-63
2022/09/05 10:12:28;;;;;;;2.87;1.40;;;27.50;99.90;;;;;;5075222;28;20248;-62
2022/09/05 10:15:02;;;;;;;1.80;1.20;;;27.60;99.90;;;;;;5074306;28;20703;-62
2022/09/05 10:17:46;;;;;;;2.10;1.47;;;27.80;99.90;;;;;;5074701;28;20209;-61
2022/09/05 10:20:42;;;;;;;3.63;1.60;;;27.80;99.90;;;;;;5074468;28;20224;-62
2022/09/05 10:23:33;;;;;;;2.43;1.70;;;27.80;99.90;;;;;;5072373;28;20205;-62
2022/09/05 10:26:56;;;;;;;2.60;1.53;;;28.10;99.90;;;;;;5073968;28;20566;-63
2022/09/05 10:29:45;;;;;;;1.60;1.30;;;28.20;99.90;;;;;;5074476;28;20635;-62
2022/09/05 10:32:21;;;;;;;3.83;1.53;;;27.40;99.90;;;;;;5074340;28;20606;-62
2022/09/05 10:34:56;;;;;;;2.50;1.60;;;27.40;99.90;;;;;;5074840;28;20242;-62
2022/09/05 10:37:32;;;;;;;2.67;1.23;;;27.40;99.90;;;;;;5073428;28;20200;-63
2022/09/05 10:40:06;;;;;;;1.73;1.57;;;27.50;99.90;;;;;;5074222;28;20208;-62
2022/09/05 10:42:37;;;;;;;1.77;1.20;;;27.70;99.90;;;;;;5074251;28;20209;-63
2022/09/05 10:45:10;;;;;;;2.60;1.83;;;27.70;99.90;;;;;;5072249;28;20229;-65
2022/09/05 10:47:46;;;;;;;3.57;1.70;;;27.60;99.90;;;;;;5073340;28;20279;-66
2022/09/05 10:50:25;;;;;;;3.30;1.40;;;27.50;99.90;;;;;;5074222;28;20236;-63
2022/09/05 10:53:09;;;;;;;3.03;1.70;;;27.40;99.90;;;;;;5074173;28;20211;-63
2022/09/05 10:55:45;;;;;;;1.50;1.17;;;27.40;99.90;;;;;;5074138;28;20652;-62
2022/09/05 10:58:22;;;;;;;2.03;1.37;;;26.80;99.90;;;;;;5073020;28;20204;-63
2022/09/05 11:01:02;;;;;;;2.03;1.63;;;26.80;99.90;;;;;;5073483;28;20221;-62
2022/09/05 11:03:43;;;;;;;3.43;1.60;;;26.90;99.90;;;;;;5073866;28;20266;-62
2022/09/05 11:06:15;;;;;;;4.10;1.80;;;27.00;99.90;;;;;;5073563;28;20201;-61
2022/09/05 11:08:52;;;;;;;1.77;1.43;;;27.10;99.90;;;;;;5073386;28;20622;-62
2022/09/05 11:11:23;;;;;;;2.00;1.53;;;27.10;99.90;;;;;;5073699;28;20740;-61
2022/09/05 11:13:51;;;;;;;2.80;1.33;;;27.10;99.90;;;;;;5073570;28;20205;-62
2022/09/05 11:16:27;;;;;;;2.20;1.60;;;27.20;99.90;;;;;;5072244;28;20251;-63
2022/09/05 11:19:01;;;;;;;2.07;1.37;;;27.40;99.90;;;;;;5073471;28;20261;-60
2022/09/05 11:21:52;;;;;;;2.37;1.60;;;27.50;99.90;;;;;;5073316;28;20216;-62
2022/09/05 11:24:36;;;;;;;1.60;1.23;;;27.70;99.90;;;;;;5073540;28;20957;-61
2022/09/05 11:27:06;;;;;;;1.53;1.40;;;27.70;99.90;;;;;;5072821;28;20255;-61
2022/09/05 11:29:39;;;;;;;1.83;1.23;;;27.80;99.90;;;;;;5073217;28;20231;-63
2022/09/05 11:32:53;;;;;;;2.07;1.33;;;27.60;99.90;;;;;;5072970;28;20300;-64
2022/09/05 11:35:23;;;;;;;3.13;1.40;;;27.50;99.90;;;;;;5072157;28;20233;-64
2022/09/05 11:38:33;;;;;;;3.03;1.53;;;27.70;99.90;;;;;;5065155;28;20287;-63
2022/09/05 11:41:37;;;;;;;3.27;1.43;;;27.90;99.90;;;;;;5073418;28;20308;-62
2022/09/05 11:44:28;;;;;;;1.40;1.27;;;28.10;99.90;;;;;;5072940;28;20312;-63
2022/09/05 11:47:20;;;;;;;2.70;1.37;;;28.20;99.90;;;;;;5072638;28;20209;-64
2022/09/05 11:50:34;;;;;;;1.57;1.33;;;27.70;99.90;;;;;;5062161;28;20668;-67
2022/09/05 11:53:34;;;;;;;1.97;1.30;;;27.40;99.90;;;;;;4989391;28;20207;-66
2022/09/05 11:56:27;;;;;;;1.30;1.20;;;27.50;99.90;;;;;;4991228;28;20729;-66
2022/09/05 11:59:14;;;;;;;1.73;1.57;;;27.60;99.90;;;;;;5067908;28;20209;-67
2022/09/05 12:01:52;;;;;;;2.40;1.30;;;27.90;99.90;;;;;;5073012;28;20229;-63
2022/09/05 12:04:33;;;;;;;2.70;1.60;;;27.80;99.90;;;;;;5072565;28;20315;-64
2022/09/05 12:07:24;;;;;;;5.43;1.63;;;27.80;99.90;;;;;;5073794;28;20209;-62
2022/09/05 12:10:02;;;;;;;3.60;1.60;;;27.90;99.90;;;;;;5073393;28;20247;-62
2022/09/05 12:12:34;;;;;;;2.10;1.60;;;28.10;99.90;;;;;;5080168;28;20196;-67
2022/09/05 12:15:15;;;;;;;2.23;1.33;;;28.20;99.90;;;;;;5077619;28;20707;-68
2022/09/05 12:17:50;;;;;;;2.17;1.60;;;28.20;99.90;;;;;;5072326;28;20728;-67
2022/09/05 12:20:23;;;;;;;2.20;1.60;;;28.50;99.90;;;;;;5072433;28;20237;-67
2022/09/05 12:22:56;;;;;;;2.77;1.70;;;28.60;99.90;;;;;;5072641;28;20247;-66
2022/09/05 12:25:35;;;;;;;1.73;1.40;;;28.60;99.90;;;;;;5072133;28;20302;-67
2022/09/05 12:28:06;;;;;;;2.07;1.50;;;28.70;99.90;;;;;;5071617;28;20208;-66
2022/09/05 12:30:36;;;;;;;1.93;1.50;;;28.80;99.90;;;;;;5071998;28;20239;-63
2022/09/05 12:33:18;;;;;;;2.37;1.50;;;28.80;99.90;;;;;;5072497;28;20204;-62
2022/09/05 12:35:51;;;;;;;3.07;1.67;;;28.60;99.90;;;;;;5071948;28;20239;-62
2022/09/05 12:38:32;;;;;;;5.27;2.17;;;28.30;99.90;;;;;;5063156;28;20213;-63
2022/09/05 12:41:08;;;;;;;1.63;1.50;;;28.30;99.90;;;;;;5072044;28;20236;-62
2022/09/05 12:43:36;;;;;;;4.20;1.43;;;28.30;99.90;;;;;;5071827;28;20278;-67
2022/09/05 12:46:08;;;;;;;5.87;1.60;;;28.40;99.90;;;;;;5071342;28;20205;-65
2022/09/05 12:48:40;;;;;;;2.17;1.33;;;28.50;99.90;;;;;;5071937;28;20205;-64
2022/09/05 12:51:09;;;;;;;2.37;1.40;;;28.60;99.90;;;;;;5072010;28;20686;-62
2022/09/05 12:53:43;;;;;;;4.10;1.43;;;28.80;99.90;;;;;;5071490;28;20671;-64
2022/09/05 12:56:23;;;;;;;5.47;1.50;;;29.00;99.90;;;;;;5071637;28;20204;-68
2022/09/05 12:58:52;;;;;;;2.50;1.33;;;29.00;99.90;;;;;;5071546;28;20289;-67
2022/09/05 13:01:26;;;;;;;3.73;1.23;;;29.10;99.90;;;;;;5071766;28;20229;-67
2022/09/05 13:03:58;;;;;;;1.80;1.60;;;29.30;99.90;;;;;;5071611;28;20239;-67
2022/09/05 13:06:30;;;;;;;1.40;1.20;;;29.30;99.90;;;;;;5071574;28;20216;-63
2022/09/05 13:09:02;;;;;;;2.50;1.40;;;29.30;99.90;;;;;;5071237;28;20250;-63
2022/09/05 13:11:39;;;;;;;2.20;1.30;;;29.00;99.90;;;;;;5071843;28;20201;-63
2022/09/05 13:14:17;;;;;;;2.47;1.70;;;28.90;99.90;;;;;;5070999;28;20281;-63
2022/09/05 13:16:47;;;;;;;4.53;1.50;;;29.10;99.90;;;;;;5071566;28;20581;-63
2022/09/05 13:19:25;;;;;;;2.55;1.27;;;29.30;99.90;;;;;;5069262;28;20209;-63
2022/09/05 13:21:56;;;;;;;2.53;1.30;;;29.50;99.90;;;;;;5071615;28;20232;-63
2022/09/05 13:24:29;;;;;;;1.38;1.17;;;29.50;99.90;;;;;;5070860;28;20236;-63
2022/09/05 13:27:04;;;;;;;1.55;1.33;;;29.70;99.90;;;;;;5071378;28;20209;-63
2022/09/05 13:29:36;;;;;;;2.83;1.33;;;29.80;99.90;;;;;;5071027;28;20594;-63
2022/09/05 13:32:09;;;;;;;2.13;1.30;;;29.30;99.90;;;;;;5071283;28;20236;-63
2022/09/05 13:34:42;;;;;;;2.43;1.10;;;29.40;99.90;;;;;;5071305;28;20221;-64
2022/09/05 13:37:16;;;;;;;2.65;1.33;;;29.50;99.90;;;;;;5070183;28;20239;-63
2022/09/05 13:39:50;;;;;;;5.35;1.55;;;29.70;99.90;;;;;;5070793;28;20208;-63
2022/09/05 13:42:21;;;;;;;2.53;1.20;;;29.70;99.90;;;;;;5070858;28;20264;-63
2022/09/05 13:44:53;;;;;;;1.60;1.30;;;29.80;99.90;;;;;;5068790;28;20591;-62
2022/09/05 13:47:49;;;;;;;3.55;1.50;;;29.70;99.90;;;;;;5068634;28;20236;-62
2022/09/05 13:50:26;;;;;;;2.23;1.30;;;29.80;99.90;;;;;;5071321;28;20622;-62
2022/09/05 13:52:58;;;;;;;3.03;1.10;;;29.60;99.90;;;;;;5070935;28;20208;-62
2022/09/05 13:55:41;;;;;;;5.60;1.30;;;29.60;99.90;;;;;;5071313;28;20294;-62